createdAt,value
2018-12-02T00:02:09.760Z,95119.00
2018-12-02T00:04:39.462Z,95122.00
2018-12-02T00:07:09.425Z,95108.00
2018-12-02T00:09:39.572Z,95113.00
2018-12-02T00:12:09.724Z,95097.00
2018-12-02T00:14:39.680Z,95103.00
2018-12-02T00:17:09.612Z,95108.00
2018-12-02T00:19:40.863Z,95109.00
2018-12-02T00:22:10.114Z,95104.00
2018-12-02T00:24:39.839Z,95109.00
2018-12-02T00:27:09.784Z,95107.00
2018-12-02T00:29:39.840Z,95091.00
2018-12-02T00:32:09.828Z,95092.00
2018-12-02T00:34:39.804Z,95083.00
2018-12-02T00:37:09.993Z,95078.00
2018-12-02T00:39:41.171Z,95073.00
2018-12-02T00:42:10.376Z,95069.00
2018-12-02T00:44:40.101Z,95058.00
2018-12-02T00:47:10.096Z,95072.00
2018-12-02T00:49:40.097Z,95064.00
2018-12-02T00:52:10.172Z,95053.00
2018-12-02T00:54:40.140Z,95046.00
2018-12-02T00:57:10.111Z,95049.00
2018-12-02T00:59:40.205Z,95044.00
2018-12-02T01:02:10.853Z,95044.00
2018-12-02T01:04:41.844Z,95045.00
2018-12-02T01:07:11.049Z,95060.00
2018-12-02T01:09:40.333Z,95057.00
2018-12-02T01:12:11.638Z,95056.00
2018-12-02T01:14:40.855Z,95049.00
2018-12-02T01:17:10.413Z,95049.00
2018-12-02T01:19:40.451Z,95048.00
2018-12-02T01:22:10.300Z,95036.00
2018-12-02T01:24:40.496Z,95022.00
2018-12-02T01:27:10.448Z,95023.00
2018-12-02T01:29:40.428Z,95021.00
2018-12-02T01:32:10.738Z,95018.00
2018-12-02T01:34:40.604Z,95017.00
2018-12-02T01:37:10.624Z,95015.00
2018-12-02T01:39:40.669Z,95026.00
2018-12-02T01:42:10.684Z,95018.00
2018-12-02T01:44:40.683Z,95015.00
2018-12-02T01:47:10.821Z,94994.00
2018-12-02T01:49:42.023Z,95007.00
2018-12-02T01:52:11.157Z,95002.00
2018-12-02T01:54:40.844Z,94988.00
2018-12-02T01:57:10.836Z,94992.00
2018-12-02T01:59:41.072Z,94983.00
2018-12-02T02:02:11.053Z,94991.00
2018-12-02T02:04:41.036Z,94974.00
2018-12-02T02:07:11.025Z,94969.00
2018-12-02T02:09:41.044Z,94971.00
2018-12-02T02:12:11.152Z,94961.00
2018-12-02T02:14:41.009Z,94961.00
2018-12-02T02:17:11.128Z,94954.00
2018-12-02T02:19:41.128Z,94945.00
2018-12-02T02:22:12.230Z,94955.00
2018-12-02T02:24:41.420Z,94934.00
2018-12-02T02:27:11.144Z,94949.00
2018-12-02T02:29:41.348Z,94940.00
2018-12-02T02:32:11.337Z,94930.00
2018-12-02T02:34:42.155Z,94933.00
2018-12-02T02:37:11.424Z,94934.00
2018-12-02T02:39:41.395Z,94930.00
2018-12-02T02:42:11.353Z,94910.00
2018-12-02T02:44:41.452Z,94935.00
2018-12-02T02:47:11.497Z,94923.00
2018-12-02T02:49:41.497Z,94925.00
2018-12-02T02:52:11.473Z,94913.00
2018-12-02T02:54:41.484Z,94924.00
2018-12-02T02:57:11.492Z,94920.00
2018-12-02T02:59:41.488Z,94909.00
2018-12-02T03:02:11.601Z,94914.00
2018-12-02T03:04:41.627Z,94899.00
2018-12-02T03:07:12.917Z,94907.00
2018-12-02T03:09:42.032Z,94919.00
2018-12-02T03:12:11.700Z,94918.00
2018-12-02T03:14:41.681Z,94917.00
2018-12-02T03:17:11.684Z,94905.00
2018-12-02T03:19:41.832Z,94901.00
2018-12-02T03:22:11.790Z,94905.00
2018-12-02T03:24:41.808Z,94899.00
2018-12-02T03:27:11.862Z,94896.00
2018-12-02T03:29:41.920Z,94885.00
2018-12-02T03:32:13.693Z,94892.00
2018-12-02T03:34:42.885Z,94892.00
2018-12-02T03:37:12.245Z,94874.00
2018-12-02T03:39:42.077Z,94870.00
2018-12-02T03:42:12.092Z,94886.00
2018-12-02T03:44:42.192Z,94872.00
2018-12-02T03:47:20.625Z,94888.00
2018-12-02T03:49:49.789Z,94883.00
2018-12-02T03:52:19.364Z,94888.00
2018-12-02T03:54:48.501Z,94865.00
2018-12-02T03:57:17.595Z,94862.00
2018-12-02T03:59:46.748Z,94872.00
2018-12-02T04:02:15.916Z,94866.00
2018-12-02T04:04:45.136Z,94857.00
2018-12-02T04:07:14.245Z,94858.00
2018-12-02T04:09:43.402Z,94854.00
2018-12-02T04:12:12.585Z,94857.00
2018-12-02T04:14:42.537Z,94839.00
2018-12-02T04:17:12.613Z,94844.00
2018-12-02T04:19:42.498Z,94831.00
2018-12-02T04:22:12.628Z,94836.00
2018-12-02T04:24:42.700Z,94841.00
2018-12-02T04:27:12.808Z,94837.00
2018-12-02T04:29:42.793Z,94840.00
2018-12-02T04:32:12.727Z,94836.00
2018-12-02T04:34:42.769Z,94834.00
2018-12-02T04:37:12.789Z,94830.00
2018-12-02T04:39:42.858Z,94831.00
2018-12-02T04:42:12.841Z,94832.00
2018-12-02T04:44:42.773Z,94834.00
2018-12-02T04:47:12.932Z,94837.00
2018-12-02T04:49:43.088Z,94824.00
2018-12-02T04:52:13.077Z,94839.00
2018-12-02T04:54:44.188Z,94827.00
2018-12-02T04:57:13.387Z,94830.00
2018-12-02T04:59:43.131Z,94828.00
2018-12-02T05:02:13.125Z,94815.00
2018-12-02T05:04:43.150Z,94813.00
2018-12-02T05:07:13.124Z,94819.00
2018-12-02T05:09:43.346Z,94823.00
2018-12-02T05:12:13.279Z,94830.00
2018-12-02T05:14:43.235Z,94830.00
2018-12-02T05:17:13.201Z,94803.00
2018-12-02T05:19:43.391Z,94805.00
2018-12-02T05:22:13.256Z,94805.00
2018-12-02T05:24:43.257Z,94816.00
2018-12-02T05:27:13.247Z,94812.00
2018-12-02T05:29:43.340Z,94813.00
2018-12-02T05:32:13.329Z,94821.00
2018-12-02T05:34:43.439Z,94825.00
2018-12-02T05:37:13.439Z,94817.00
2018-12-02T05:39:44.244Z,94814.00
2018-12-02T05:42:18.464Z,94812.00
2018-12-02T05:44:47.666Z,94800.00
2018-12-02T05:47:16.853Z,94813.00
2018-12-02T05:49:46.058Z,94789.00
2018-12-02T05:52:15.284Z,94803.00
2018-12-02T05:54:44.453Z,94791.00
2018-12-02T05:57:13.617Z,94793.00
2018-12-02T05:59:43.545Z,94796.00
2018-12-02T06:02:13.560Z,94799.00
2018-12-02T06:04:43.556Z,94810.00
2018-12-02T06:07:13.576Z,94809.00
2018-12-02T06:09:43.625Z,94806.00
2018-12-02T06:12:13.484Z,94802.00
2018-12-02T06:14:43.677Z,94806.00
2018-12-02T06:17:13.576Z,94817.00
2018-12-02T06:19:43.648Z,94811.00
2018-12-02T06:22:13.732Z,94794.00
2018-12-02T06:24:43.667Z,94786.00
2018-12-02T06:27:13.636Z,94778.00
2018-12-02T06:29:43.645Z,94784.00
2018-12-02T06:32:13.761Z,94773.00
2018-12-02T06:34:43.595Z,94751.00
2018-12-02T06:37:13.664Z,94758.00
2018-12-02T06:39:43.700Z,94741.00
2018-12-02T06:42:13.811Z,94746.00
2018-12-02T06:44:43.789Z,94747.00
2018-12-02T06:47:13.824Z,94740.00
2018-12-02T06:49:44.765Z,94754.00
2018-12-02T06:52:14.013Z,94742.00
2018-12-02T06:54:43.760Z,94752.00
2018-12-02T06:57:13.980Z,94758.00
2018-12-02T06:59:49.609Z,94754.00
2018-12-02T07:03:32.836Z,94768.00
2018-12-02T07:06:02.053Z,94760.00
2018-12-02T07:08:31.199Z,94760.00
2018-12-02T07:11:01.698Z,94755.00
2018-12-02T07:13:30.808Z,94748.00
2018-12-02T07:16:00.918Z,94768.00
2018-12-02T07:18:32.449Z,94775.00
2018-12-02T07:21:01.792Z,94771.00
2018-12-02T07:23:30.964Z,94755.00
2018-12-02T07:26:00.229Z,94763.00
2018-12-02T07:28:29.357Z,94741.00
2018-12-02T07:30:58.548Z,94745.00
2018-12-02T07:33:27.729Z,94746.00
2018-12-02T07:35:56.900Z,94751.00
2018-12-02T07:38:41.574Z,94745.00
2018-12-02T07:41:11.355Z,94732.00
2018-12-02T07:43:40.481Z,94722.00
2018-12-02T07:46:09.666Z,94725.00
2018-12-02T07:48:38.736Z,94727.00
2018-12-02T07:51:07.926Z,94717.00
2018-12-02T07:53:37.046Z,94707.00
2018-12-02T07:56:06.498Z,94710.00
2018-12-02T07:58:35.648Z,94731.00
2018-12-02T08:01:04.843Z,94720.00
2018-12-02T08:03:33.991Z,94738.00
2018-12-02T08:06:03.208Z,94742.00
2018-12-02T08:08:32.455Z,94748.00
2018-12-02T08:11:01.556Z,94745.00
2018-12-02T08:13:30.677Z,94738.00
2018-12-02T08:15:59.863Z,94736.00
2018-12-02T08:18:28.988Z,94741.00
2018-12-02T08:20:58.186Z,94740.00
2018-12-02T08:23:27.524Z,94743.00
2018-12-02T08:25:56.721Z,94731.00
2018-12-02T08:28:25.940Z,94722.00
2018-12-02T08:30:55.173Z,94742.00
2018-12-02T08:33:24.468Z,94717.00
2018-12-02T08:35:53.666Z,94709.00
2018-12-02T08:38:22.880Z,94701.00
2018-12-02T08:40:52.302Z,94690.00
2018-12-02T08:43:21.476Z,94703.00
2018-12-02T08:45:50.624Z,94691.00
2018-12-02T08:48:19.726Z,94693.00
2018-12-02T08:50:48.851Z,94690.00
2018-12-02T08:53:18.028Z,94708.00
2018-12-02T08:55:47.264Z,94703.00
2018-12-02T08:58:16.440Z,94697.00
2018-12-02T09:00:46.474Z,94691.00
2018-12-02T09:03:15.831Z,94676.00
2018-12-02T09:05:45.947Z,94685.00
2018-12-02T09:08:15.928Z,94674.00
2018-12-02T09:10:46.407Z,94675.00
2018-12-02T09:13:15.871Z,94675.00
2018-12-02T09:15:46.015Z,94664.00
2018-12-02T09:18:15.967Z,94665.00
2018-12-02T09:20:46.113Z,94659.00
2018-12-02T09:23:16.052Z,94667.00
2018-12-02T09:25:45.928Z,94665.00
2018-12-02T09:28:16.070Z,94669.00
2018-12-02T09:30:46.036Z,94699.00
2018-12-02T09:33:17.245Z,94690.00
2018-12-02T09:35:46.448Z,94683.00
2018-12-02T09:38:16.171Z,94683.00
2018-12-02T09:40:46.248Z,94674.00
2018-12-02T09:43:16.410Z,94662.00
2018-12-02T09:45:46.145Z,94667.00
2018-12-02T09:48:16.239Z,94677.00
2018-12-02T09:50:46.264Z,94681.00
2018-12-02T09:53:17.225Z,94674.00
2018-12-02T09:55:48.219Z,94674.00
2018-12-02T09:58:25.180Z,94659.00
2018-12-02T10:00:56.053Z,94647.00
2018-12-02T10:03:25.242Z,94656.00
2018-12-02T10:05:54.401Z,94660.00
2018-12-02T10:08:23.484Z,94650.00
2018-12-02T10:10:52.868Z,94657.00
2018-12-02T10:13:23.742Z,94644.00
2018-12-02T10:15:52.962Z,94651.00
2018-12-02T10:18:22.111Z,94640.00
2018-12-02T10:20:51.312Z,94636.00
2018-12-02T10:23:20.441Z,94630.00
2018-12-02T10:25:49.639Z,94648.00
2018-12-02T10:28:18.756Z,94631.00
2018-12-02T10:30:47.864Z,94628.00
2018-12-02T10:33:17.100Z,94618.00
2018-12-02T10:35:46.147Z,94623.00
2018-12-02T10:38:15.280Z,94622.00
2018-12-02T10:40:44.428Z,94599.00
2018-12-02T10:43:13.548Z,94618.00
2018-12-02T10:45:42.964Z,94617.00
2018-12-02T10:48:13.331Z,94627.00
2018-12-02T10:50:43.033Z,94619.00
2018-12-02T10:53:21.293Z,94604.00
2018-12-02T10:55:56.140Z,94627.00
2018-12-02T10:58:27.127Z,94614.00
2018-12-02T11:01:04.227Z,94601.00
2018-12-02T11:03:33.574Z,94599.00
2018-12-02T11:06:02.984Z,94599.00
2018-12-02T11:08:32.191Z,94595.00
2018-12-02T11:11:01.324Z,94610.00
2018-12-02T11:13:31.822Z,94600.00
2018-12-02T11:16:01.029Z,94611.00
2018-12-02T11:18:30.199Z,94612.00
2018-12-02T11:20:59.387Z,94601.00
2018-12-02T11:23:28.418Z,94591.00
2018-12-02T11:25:57.633Z,94578.00
2018-12-02T11:28:27.421Z,94579.00
2018-12-02T11:30:56.536Z,94574.00
2018-12-02T11:33:25.722Z,94565.00
2018-12-02T11:35:54.913Z,94561.00
2018-12-02T11:38:24.047Z,94580.00
2018-12-02T11:40:53.410Z,94573.00
2018-12-02T11:43:22.557Z,94569.00
2018-12-02T11:45:51.714Z,94573.00
2018-12-02T11:48:20.924Z,94564.00
2018-12-02T11:50:50.802Z,94565.00
2018-12-02T11:53:19.816Z,94567.00
2018-12-02T11:55:48.936Z,94567.00
2018-12-02T11:58:18.005Z,94573.00
2018-12-02T12:00:47.292Z,94577.00
2018-12-02T12:03:16.405Z,94583.00
2018-12-02T12:05:47.689Z,94574.00
2018-12-02T12:08:16.767Z,94571.00
2018-12-02T12:10:45.896Z,94580.00
2018-12-02T12:13:15.500Z,94573.00
2018-12-02T12:15:44.735Z,94575.00
2018-12-02T12:18:14.537Z,94572.00
2018-12-02T12:20:44.713Z,94584.00
2018-12-02T12:23:19.151Z,94576.00
2018-12-02T12:25:48.323Z,94561.00
2018-12-02T12:28:17.424Z,94552.00
2018-12-02T12:30:46.582Z,94575.00
2018-12-02T12:33:15.712Z,94539.00
2018-12-02T12:35:48.679Z,94567.00
2018-12-02T12:38:17.877Z,94570.00
2018-12-02T12:40:49.601Z,94566.00
2018-12-02T12:43:25.924Z,94556.00
2018-12-02T12:45:55.147Z,94550.00
2018-12-02T12:48:24.407Z,94547.00
2018-12-02T12:50:53.554Z,94531.00
2018-12-02T12:53:22.687Z,94529.00
2018-12-02T12:55:51.873Z,94524.00
2018-12-02T12:58:21.147Z,94527.00
2018-12-02T13:00:51.674Z,94525.00
2018-12-02T13:03:20.910Z,94531.00
2018-12-02T13:05:50.160Z,94525.00
2018-12-02T13:08:19.327Z,94518.00
2018-12-02T13:10:48.499Z,94518.00
2018-12-02T13:13:17.588Z,94518.00
2018-12-02T13:15:46.764Z,94523.00
2018-12-02T13:18:15.849Z,94515.00
2018-12-02T13:20:50.074Z,94515.00
2018-12-02T13:23:19.204Z,94505.00
2018-12-02T13:25:50.283Z,94508.00
2018-12-02T13:28:19.487Z,94509.00
2018-12-02T13:30:48.808Z,94509.00
2018-12-02T13:33:18.051Z,94511.00
2018-12-02T13:35:47.303Z,94512.00
2018-12-02T13:38:16.364Z,94517.00
2018-12-02T13:40:45.638Z,94505.00
2018-12-02T13:43:20.592Z,94508.00
2018-12-02T13:45:50.744Z,94510.00
2018-12-02T13:48:20.049Z,94517.00
2018-12-02T13:50:49.258Z,94514.00
2018-12-02T13:53:18.488Z,94519.00
2018-12-02T13:55:47.716Z,94519.00
2018-12-02T13:58:16.880Z,94522.00
2018-12-02T14:00:46.009Z,94525.00
2018-12-02T14:03:15.857Z,94516.00
2018-12-02T14:05:48.100Z,94517.00
2018-12-02T14:08:17.304Z,94521.00
2018-12-02T14:10:46.668Z,94522.00
2018-12-02T14:13:23.872Z,94516.00
2018-12-02T14:17:06.070Z,94520.00
2018-12-02T14:19:35.383Z,94515.00
2018-12-02T14:22:04.479Z,94528.00
2018-12-02T14:24:33.664Z,94529.00
2018-12-02T14:27:02.924Z,94528.00
2018-12-02T14:29:36.173Z,94535.00
2018-12-02T14:32:12.185Z,94534.00
2018-12-02T14:34:41.418Z,94539.00
2018-12-02T14:37:10.627Z,94545.00
2018-12-02T14:39:39.756Z,94536.00
2018-12-02T14:42:08.924Z,94547.00
2018-12-02T14:44:38.067Z,94537.00
2018-12-02T14:47:07.399Z,94543.00
2018-12-02T14:49:36.661Z,94539.00
2018-12-02T14:52:06.465Z,94550.00
2018-12-02T14:54:37.875Z,94541.00
2018-12-02T14:57:07.038Z,94538.00
2018-12-02T14:59:36.264Z,94554.00
2018-12-02T15:02:05.744Z,94548.00
2018-12-02T15:04:34.972Z,94541.00
2018-12-02T15:07:04.088Z,94561.00
2018-12-02T15:09:33.417Z,94557.00
2018-12-02T15:12:02.575Z,94556.00
2018-12-02T15:14:31.802Z,94568.00
2018-12-02T15:17:00.980Z,94555.00
2018-12-02T15:19:31.465Z,94558.00
2018-12-02T15:22:00.677Z,94553.00
2018-12-02T15:24:29.756Z,94550.00
2018-12-02T15:27:00.168Z,94555.00
2018-12-02T15:29:30.041Z,94543.00
2018-12-02T15:31:59.085Z,94556.00
2018-12-02T15:34:28.284Z,94560.00
2018-12-02T15:36:57.423Z,94558.00
2018-12-02T15:39:26.625Z,94558.00
2018-12-02T15:41:55.848Z,94545.00
2018-12-02T15:44:24.957Z,94552.00
2018-12-02T15:46:54.137Z,94549.00
2018-12-02T15:49:23.330Z,94547.00
2018-12-02T15:51:52.496Z,94549.00
2018-12-02T15:54:21.748Z,94556.00
2018-12-02T15:56:50.960Z,94558.00
2018-12-02T15:59:20.129Z,94558.00
2018-12-02T16:01:49.299Z,94569.00
2018-12-02T16:04:18.441Z,94566.00
2018-12-02T16:06:47.633Z,94587.00
2018-12-02T16:09:17.852Z,94576.00
2018-12-02T16:11:47.004Z,94580.00
2018-12-02T16:14:17.937Z,94589.00
2018-12-02T16:16:47.144Z,94589.00
2018-12-02T16:19:17.906Z,94585.00
2018-12-02T16:21:47.116Z,94607.00
2018-12-02T16:24:17.936Z,94596.00
2018-12-02T16:26:47.179Z,94603.00
2018-12-02T16:29:18.045Z,94610.00
2018-12-02T16:31:47.297Z,94608.00
2018-12-02T16:34:16.954Z,94612.00
2018-12-02T16:36:46.980Z,94609.00
2018-12-02T16:39:17.023Z,94607.00
2018-12-02T16:41:50.648Z,94606.00
2018-12-02T16:44:19.865Z,94607.00
2018-12-02T16:46:49.092Z,94607.00
2018-12-02T16:49:19.095Z,94582.00
2018-12-02T16:51:48.205Z,94605.00
2018-12-02T16:54:17.312Z,94603.00
2018-12-02T16:56:47.445Z,94602.00
2018-12-02T16:59:24.944Z,94609.00
2018-12-02T17:01:57.805Z,94618.00
2018-12-02T17:04:27.020Z,94609.00
2018-12-02T17:06:56.206Z,94609.00
2018-12-02T17:09:25.404Z,94615.00
2018-12-02T17:11:54.520Z,94612.00
2018-12-02T17:14:23.715Z,94610.00
2018-12-02T17:16:52.937Z,94630.00
2018-12-02T17:19:22.056Z,94610.00
2018-12-02T17:21:51.220Z,94620.00
2018-12-02T17:24:20.401Z,94613.00
2018-12-02T17:26:49.680Z,94632.00
2018-12-02T17:29:20.671Z,94617.00
2018-12-02T17:32:00.529Z,94618.00
2018-12-02T17:34:29.731Z,94631.00
2018-12-02T17:36:58.859Z,94629.00
2018-12-02T17:39:30.771Z,94619.00
2018-12-02T17:42:02.928Z,94616.00
2018-12-02T17:44:32.124Z,94635.00
2018-12-02T17:47:01.311Z,94633.00
2018-12-02T17:49:30.532Z,94625.00
2018-12-02T17:51:59.751Z,94647.00
2018-12-02T17:54:28.900Z,94635.00
2018-12-02T17:56:58.014Z,94634.00
2018-12-02T17:59:27.325Z,94633.00
2018-12-02T18:01:56.435Z,94628.00
2018-12-02T18:04:25.572Z,94637.00
2018-12-02T18:06:54.828Z,94635.00
2018-12-02T18:09:24.014Z,94631.00
2018-12-02T18:11:53.179Z,94644.00
2018-12-02T18:14:22.336Z,94631.00
2018-12-02T18:16:51.552Z,94630.00
2018-12-02T18:19:20.758Z,94626.00
2018-12-02T18:21:49.908Z,94650.00
2018-12-02T18:24:19.151Z,94637.00
2018-12-02T18:26:48.332Z,94634.00
2018-12-02T18:29:18.928Z,94649.00
2018-12-02T18:31:48.064Z,94647.00
2018-12-02T18:34:19.260Z,94655.00
2018-12-02T18:36:48.617Z,94642.00
2018-12-02T18:39:19.248Z,94642.00
2018-12-02T18:41:51.724Z,94658.00
2018-12-02T18:44:20.909Z,94646.00
2018-12-02T18:46:50.305Z,94659.00
2018-12-02T18:49:19.366Z,94638.00
2018-12-02T18:51:48.512Z,94651.00
2018-12-02T18:54:19.014Z,94645.00
2018-12-02T18:56:48.267Z,94649.00
2018-12-02T18:59:20.684Z,94662.00
2018-12-02T19:01:49.896Z,94640.00
2018-12-02T19:04:19.215Z,94657.00
2018-12-02T19:06:48.349Z,94644.00
2018-12-02T19:09:18.088Z,94644.00
2018-12-02T19:11:48.376Z,94642.00
2018-12-02T19:14:17.812Z,94641.00
2018-12-02T19:16:48.129Z,94639.00
2018-12-02T19:19:17.959Z,94641.00
2018-12-02T19:21:48.260Z,94656.00
2018-12-02T19:24:18.078Z,94643.00
2018-12-02T19:26:48.272Z,94648.00
2018-12-02T19:29:18.076Z,94642.00
2018-12-02T19:31:48.393Z,94644.00
2018-12-02T19:34:17.924Z,94640.00
2018-12-02T19:36:59.589Z,94646.00
2018-12-02T19:39:28.792Z,94643.00
2018-12-02T19:41:57.964Z,94649.00
2018-12-02T19:44:27.089Z,94647.00
2018-12-02T19:46:56.182Z,94645.00
2018-12-02T19:49:25.365Z,94640.00
2018-12-02T19:51:54.592Z,94639.00
2018-12-02T19:54:23.816Z,94639.00
2018-12-02T19:56:52.981Z,94648.00
2018-12-02T19:59:22.167Z,94640.00
2018-12-02T20:01:51.408Z,94638.00
2018-12-02T20:04:20.540Z,94642.00
2018-12-02T20:06:49.784Z,94651.00
2018-12-02T20:09:19.901Z,94652.00
2018-12-02T20:11:49.076Z,94644.00
2018-12-02T20:14:18.254Z,94642.00
2018-12-02T20:16:47.475Z,94641.00
2018-12-02T20:19:23.073Z,94635.00
2018-12-02T20:21:52.279Z,94633.00
2018-12-02T20:24:26.680Z,94613.00
2018-12-02T20:26:55.839Z,94626.00
2018-12-02T20:29:25.004Z,94616.00
2018-12-02T20:31:54.196Z,94619.00
2018-12-02T20:34:23.417Z,94624.00
2018-12-02T20:36:52.580Z,94624.00
2018-12-02T20:39:21.754Z,94615.00
2018-12-02T20:41:50.972Z,94624.00
2018-12-02T20:44:20.158Z,94619.00
2018-12-02T20:46:49.328Z,94611.00
2018-12-02T20:49:19.193Z,94617.00
2018-12-02T20:51:49.167Z,94614.00
2018-12-02T20:54:19.127Z,94626.00
2018-12-02T20:56:49.276Z,94614.00
2018-12-02T20:59:19.243Z,94632.00
2018-12-02T21:01:49.189Z,94625.00
2018-12-02T21:04:20.256Z,94620.00
2018-12-02T21:06:49.428Z,94618.00
2018-12-02T21:09:19.373Z,94626.00
2018-12-02T21:11:49.300Z,94629.00
2018-12-02T21:14:19.439Z,94617.00
2018-12-02T21:16:49.358Z,94628.00
2018-12-02T21:19:19.498Z,94619.00
2018-12-02T21:21:49.456Z,94618.00
2018-12-02T21:29:15.572Z,94624.00
2018-12-02T21:31:44.727Z,94620.00
2018-12-02T21:34:13.872Z,94619.00
2018-12-02T21:36:43.038Z,94625.00
2018-12-02T21:39:12.247Z,94610.00
2018-12-02T21:41:41.495Z,94616.00
2018-12-02T21:44:10.689Z,94619.00
2018-12-02T21:46:39.850Z,94619.00
2018-12-02T21:49:09.042Z,94609.00
2018-12-02T21:51:38.200Z,94625.00
2018-12-02T21:54:07.590Z,94622.00
2018-12-02T21:56:36.732Z,94614.00
2018-12-02T21:59:06.096Z,94622.00
2018-12-02T22:01:35.200Z,94624.00
2018-12-02T22:04:04.364Z,94606.00
2018-12-02T22:06:33.593Z,94619.00
2018-12-02T22:09:02.814Z,94619.00
2018-12-02T22:11:32.019Z,94619.00
2018-12-02T22:14:01.207Z,94628.00
2018-12-02T22:16:30.437Z,94623.00
2018-12-02T22:18:59.674Z,94632.00
2018-12-02T22:21:28.754Z,94627.00
2018-12-02T22:24:01.236Z,94637.00
2018-12-02T22:26:27.169Z,94631.00
2018-12-02T22:28:57.427Z,94633.00
2018-12-02T22:31:25.511Z,94635.00
2018-12-02T22:33:54.875Z,94627.00
2018-12-02T22:36:24.005Z,94620.00
2018-12-02T22:38:53.336Z,94623.00
2018-12-02T22:41:22.549Z,94621.00
2018-12-02T22:43:51.668Z,94623.00
2018-12-02T22:46:20.892Z,94619.00
2018-12-02T22:48:50.256Z,94622.00
2018-12-02T22:51:20.284Z,94625.00
2018-12-02T22:53:50.412Z,94620.00
2018-12-02T22:56:21.268Z,94624.00
2018-12-02T22:58:50.554Z,94623.00
2018-12-02T23:01:26.323Z,94610.00
2018-12-02T23:03:54.996Z,94613.00
2018-12-02T23:06:24.163Z,94612.00
2018-12-02T23:08:53.482Z,94611.00
2018-12-02T23:11:22.632Z,94616.00
2018-12-02T23:13:51.763Z,94603.00
2018-12-02T23:16:20.832Z,94609.00
2018-12-02T23:18:50.536Z,94611.00
2018-12-02T23:21:21.504Z,94605.00
2018-12-02T23:23:50.696Z,94609.00
2018-12-02T23:26:20.574Z,94607.00
2018-12-02T23:28:52.059Z,94613.00
2018-12-02T23:31:21.160Z,94595.00
2018-12-02T23:33:51.046Z,94604.00
2018-12-02T23:36:20.661Z,94604.00
2018-12-02T23:38:50.716Z,94595.00
2018-12-02T23:41:20.699Z,94594.00
2018-12-02T23:43:50.712Z,94593.00
2018-12-02T23:46:20.656Z,94599.00
2018-12-02T23:48:50.708Z,94597.00
2018-12-02T23:51:20.816Z,94593.00
2018-12-02T23:53:50.828Z,94597.00
2018-12-02T23:56:20.853Z,94593.00
2018-12-02T23:58:50.896Z,94589.00
